createdAt,value
2023-01-18T00:00:17.923Z,88.75
2023-01-18T00:01:21.973Z,88.76
2023-01-18T00:02:25.769Z,88.87
2023-01-18T00:04:01.547Z,88.84
2023-01-18T00:05:05.547Z,88.79
2023-01-18T00:06:09.144Z,88.81
2023-01-18T00:07:44.995Z,88.70
2023-01-18T00:08:48.522Z,88.77
2023-01-18T00:09:52.091Z,88.76
2023-01-18T00:11:28.079Z,88.81
2023-01-18T00:12:31.656Z,88.77
2023-01-18T00:13:35.916Z,88.79
2023-01-18T00:15:11.561Z,88.81
2023-01-18T00:16:15.571Z,88.88
2023-01-18T00:17:19.400Z,88.95
2023-01-18T00:18:55.281Z,88.98
2023-01-18T00:19:58.797Z,89.05
2023-01-18T00:21:02.218Z,89.09
2023-01-18T00:22:38.075Z,89.04
2023-01-18T00:23:42.303Z,89.16
2023-01-18T00:24:46.123Z,89.23
2023-01-18T00:26:22.068Z,89.28
2023-01-18T00:27:25.574Z,89.31
2023-01-18T00:28:29.363Z,89.30
2023-01-18T00:30:05.247Z,89.31
2023-01-18T00:31:09.002Z,89.41
2023-01-18T00:32:13.070Z,89.34
2023-01-18T00:33:49.408Z,89.34
2023-01-18T00:34:56.123Z,89.29
2023-01-18T00:35:59.648Z,89.32
2023-01-18T00:37:35.524Z,89.35
2023-01-18T00:38:39.108Z,89.40
2023-01-18T00:39:42.747Z,89.59
2023-01-18T00:41:18.664Z,89.54
2023-01-18T00:42:22.209Z,89.54
2023-01-18T00:43:25.891Z,89.48
2023-01-18T00:45:01.604Z,89.50
2023-01-18T00:46:05.524Z,89.43
2023-01-18T00:47:09.286Z,89.40
2023-01-18T00:48:45.029Z,89.43
2023-01-18T00:49:48.669Z,89.40
2023-01-18T00:50:52.361Z,89.36
2023-01-18T00:52:28.438Z,89.20
2023-01-18T00:53:32.047Z,89.05
2023-01-18T00:54:35.434Z,89.09
2023-01-18T00:56:11.058Z,88.88
2023-01-18T00:57:14.947Z,88.97
2023-01-18T00:58:18.367Z,88.98
2023-01-18T00:59:54.156Z,88.98
2023-01-18T01:00:18.436Z,89.01
2023-01-18T01:01:22.447Z,88.98
2023-01-18T01:02:27.017Z,89.17
2023-01-18T01:04:03.176Z,89.23
2023-01-18T01:05:06.639Z,89.23
2023-01-18T01:06:10.307Z,89.21
2023-01-18T01:07:45.867Z,89.15
2023-01-18T01:08:49.664Z,89.24
2023-01-18T01:09:53.209Z,89.18
2023-01-18T01:11:28.750Z,89.38
2023-01-18T01:12:32.358Z,89.42
2023-01-18T01:13:36.293Z,89.43
2023-01-18T01:15:12.226Z,89.41
2023-01-18T01:16:15.977Z,89.34
2023-01-18T01:17:20.142Z,89.29
2023-01-18T01:18:55.956Z,89.32
2023-01-18T01:19:59.679Z,89.35
2023-01-18T01:21:03.417Z,89.31
2023-01-18T01:22:39.043Z,89.27
2023-01-18T01:23:43.457Z,89.35
2023-01-18T01:24:47.117Z,89.44
2023-01-18T01:26:22.879Z,89.43
2023-01-18T01:27:26.335Z,89.36
2023-01-18T01:28:29.786Z,89.44
2023-01-18T01:30:05.578Z,89.46
2023-01-18T01:31:09.390Z,89.58
2023-01-18T01:32:13.087Z,89.53
2023-01-18T01:33:49.500Z,89.59
2023-01-18T01:34:53.106Z,89.57
2023-01-18T01:35:56.728Z,89.51
2023-01-18T01:37:32.631Z,89.46
2023-01-18T01:38:36.159Z,89.52
2023-01-18T01:39:39.866Z,89.50
2023-01-18T01:41:15.470Z,89.44
2023-01-18T01:42:19.303Z,89.45
2023-01-18T01:43:22.947Z,89.57
2023-01-18T01:44:58.911Z,89.60
2023-01-18T01:46:02.837Z,89.70
2023-01-18T01:47:06.563Z,89.72
2023-01-18T01:48:42.378Z,89.71
2023-01-18T01:49:46.037Z,89.70
2023-01-18T01:50:49.583Z,89.71
2023-01-18T01:52:25.216Z,89.79
2023-01-18T01:53:28.943Z,89.88
2023-01-18T01:54:32.740Z,89.90
2023-01-18T01:56:08.555Z,89.96
2023-01-18T01:57:12.105Z,89.97
2023-01-18T01:58:15.801Z,89.91
2023-01-18T01:59:51.339Z,90.12
2023-01-18T02:00:18.097Z,90.12
2023-01-18T02:01:22.004Z,90.06
2023-01-18T02:02:26.843Z,90.06
2023-01-18T02:04:03.121Z,90.19
2023-01-18T02:05:06.692Z,90.13
2023-01-18T02:06:10.658Z,90.07
2023-01-18T02:07:46.675Z,90.17
2023-01-18T02:08:50.117Z,90.23
2023-01-18T02:09:53.742Z,90.29
2023-01-18T02:11:29.660Z,90.23
2023-01-18T02:12:33.312Z,90.23
2023-01-18T02:13:37.175Z,90.30
2023-01-18T02:15:12.796Z,90.25
2023-01-18T02:16:18.157Z,90.24
2023-01-18T02:17:22.029Z,90.30
2023-01-18T02:18:58.003Z,90.44
2023-01-18T02:20:01.641Z,90.41
2023-01-18T02:21:05.459Z,90.45
2023-01-18T02:22:41.169Z,90.53
2023-01-18T02:23:45.167Z,90.47
2023-01-18T02:24:48.939Z,90.48
2023-01-18T02:26:24.721Z,90.46
2023-01-18T02:27:28.343Z,90.64
2023-01-18T02:28:31.744Z,90.53
2023-01-18T02:30:07.863Z,90.67
2023-01-18T02:31:11.669Z,90.71
2023-01-18T02:32:15.310Z,90.70
2023-01-18T02:33:52.866Z,90.90
2023-01-18T02:34:56.357Z,90.95
2023-01-18T02:36:00.232Z,90.98
2023-01-18T02:37:36.154Z,91.03
2023-01-18T02:38:39.809Z,90.98
2023-01-18T02:39:43.417Z,90.96
2023-01-18T02:41:19.192Z,91.01
2023-01-18T02:42:22.937Z,90.89
2023-01-18T02:43:26.671Z,90.87
2023-01-18T02:45:02.562Z,90.95
2023-01-18T02:46:06.306Z,90.91
2023-01-18T02:47:10.274Z,90.99
2023-01-18T02:48:46.177Z,90.93
2023-01-18T02:49:49.725Z,90.82
2023-01-18T02:50:53.221Z,90.82
2023-01-18T02:52:29.003Z,90.88
2023-01-18T02:53:32.899Z,90.90
2023-01-18T02:54:36.507Z,90.88
2023-01-18T02:56:12.375Z,90.99
2023-01-18T02:57:16.083Z,91.03
2023-01-18T02:58:19.630Z,91.04
2023-01-18T02:59:55.529Z,90.97
2023-01-18T03:00:17.958Z,90.97
2023-01-18T03:01:21.920Z,91.04
2023-01-18T03:02:26.324Z,90.90
2023-01-18T03:04:02.520Z,90.85
2023-01-18T03:05:05.915Z,90.83
2023-01-18T03:06:09.810Z,90.85
2023-01-18T03:07:45.462Z,90.91
2023-01-18T03:08:49.199Z,90.93
2023-01-18T03:09:52.882Z,90.97
2023-01-18T03:11:28.868Z,91.00
2023-01-18T03:12:32.464Z,91.04
2023-01-18T03:13:36.342Z,90.99
2023-01-18T03:15:12.221Z,90.93
2023-01-18T03:16:16.116Z,91.02
2023-01-18T03:17:19.667Z,91.07
2023-01-18T03:18:55.636Z,90.96
2023-01-18T03:19:59.223Z,90.94
2023-01-18T03:21:05.546Z,91.02
2023-01-18T03:22:41.462Z,91.12
2023-01-18T03:23:45.908Z,91.18
2023-01-18T03:24:49.485Z,91.19
2023-01-18T03:26:25.248Z,91.20
2023-01-18T03:27:29.158Z,91.18
2023-01-18T03:28:32.799Z,91.22
2023-01-18T03:30:08.656Z,91.39
2023-01-18T03:31:12.538Z,91.34
2023-01-18T03:32:16.682Z,91.29
2023-01-18T03:33:52.882Z,91.41
2023-01-18T03:34:56.608Z,91.46
2023-01-18T03:36:00.342Z,91.48
2023-01-18T03:37:35.967Z,91.42
2023-01-18T03:38:39.423Z,91.32
2023-01-18T03:39:43.111Z,91.44
2023-01-18T03:41:19.032Z,91.50
2023-01-18T03:42:22.703Z,91.69
2023-01-18T03:43:26.196Z,91.65
2023-01-18T03:45:02.140Z,91.51
2023-01-18T03:46:05.918Z,91.59
2023-01-18T03:47:09.709Z,91.69
2023-01-18T03:48:45.156Z,91.82
2023-01-18T03:49:48.514Z,91.78
2023-01-18T03:50:51.836Z,91.92
2023-01-18T03:52:27.700Z,91.81
2023-01-18T03:53:31.080Z,91.82
2023-01-18T03:54:34.665Z,92.11
2023-01-18T03:56:10.706Z,91.93
2023-01-18T03:57:14.258Z,91.91
2023-01-18T03:58:17.995Z,91.93
2023-01-18T03:59:53.916Z,91.84
2023-01-18T04:00:18.592Z,91.84
2023-01-18T04:01:22.417Z,91.78
2023-01-18T04:02:26.583Z,91.78
2023-01-18T04:04:02.801Z,91.62
2023-01-18T04:05:06.498Z,91.65
2023-01-18T04:06:10.135Z,91.62
2023-01-18T04:07:46.075Z,91.55
2023-01-18T04:08:49.587Z,91.56
2023-01-18T04:09:53.258Z,91.69
2023-01-18T04:11:29.053Z,91.67
2023-01-18T04:12:32.464Z,91.54
2023-01-18T04:13:36.131Z,91.51
2023-01-18T04:15:13.299Z,91.43
2023-01-18T04:16:16.827Z,91.34
2023-01-18T04:17:20.520Z,91.29
2023-01-18T04:18:56.199Z,91.41
2023-01-18T04:19:59.878Z,91.45
2023-01-18T04:21:03.354Z,91.42
2023-01-18T04:22:39.240Z,91.41
2023-01-18T04:23:43.033Z,91.41
2023-01-18T04:24:46.656Z,91.28
2023-01-18T04:26:22.657Z,91.30
2023-01-18T04:27:27.267Z,91.23
2023-01-18T04:28:31.095Z,91.25
2023-01-18T04:30:06.971Z,91.09
2023-01-18T04:31:10.635Z,91.18
2023-01-18T04:32:14.796Z,91.11
2023-01-18T04:33:50.887Z,91.10
2023-01-18T04:34:54.815Z,91.15
2023-01-18T04:35:58.393Z,91.19
2023-01-18T04:37:34.468Z,91.09
2023-01-18T04:38:38.013Z,91.05
2023-01-18T04:39:41.735Z,91.04
2023-01-18T04:41:17.861Z,91.01
2023-01-18T04:42:21.459Z,91.08
2023-01-18T04:43:25.034Z,90.97
2023-01-18T04:45:00.709Z,91.07
2023-01-18T04:46:04.214Z,91.08
2023-01-18T04:47:08.161Z,91.04
2023-01-18T04:48:44.025Z,91.02
2023-01-18T04:49:47.803Z,91.01
2023-01-18T04:50:51.413Z,90.89
2023-01-18T04:52:27.318Z,90.98
2023-01-18T04:53:30.928Z,91.04
2023-01-18T04:54:34.404Z,91.09
2023-01-18T04:56:10.319Z,91.26
2023-01-18T04:57:14.054Z,91.30
2023-01-18T04:58:17.879Z,91.27
2023-01-18T04:59:53.747Z,91.35
2023-01-18T05:00:18.300Z,91.36
2023-01-18T05:01:22.550Z,91.37
2023-01-18T05:02:26.792Z,91.35
2023-01-18T05:04:02.898Z,91.30
2023-01-18T05:05:47.033Z,91.37
2023-01-18T05:06:50.698Z,91.47
2023-01-18T05:07:54.374Z,91.44
2023-01-18T05:09:30.599Z,91.64
2023-01-18T05:10:34.385Z,91.59
2023-01-18T05:11:38.254Z,91.53
2023-01-18T05:13:14.504Z,91.56
2023-01-18T05:14:18.165Z,91.52
2023-01-18T05:15:22.002Z,91.67
2023-01-18T05:16:58.995Z,91.65
2023-01-18T05:18:02.788Z,91.59
2023-01-18T05:19:06.701Z,91.62
2023-01-18T05:20:42.759Z,91.58
2023-01-18T05:21:46.664Z,91.63
2023-01-18T05:22:50.386Z,91.71
2023-01-18T05:24:29.623Z,91.71
2023-01-18T05:25:33.733Z,91.74
2023-01-18T05:26:37.397Z,91.68
2023-01-18T05:28:13.561Z,91.68
2023-01-18T05:29:17.273Z,91.85
2023-01-18T05:30:21.099Z,91.99
2023-01-18T05:31:57.087Z,91.94
2023-01-18T05:33:01.281Z,91.98
2023-01-18T05:34:05.026Z,92.20
2023-01-18T05:35:40.937Z,92.39
2023-01-18T05:36:44.731Z,92.40
2023-01-18T05:37:48.349Z,92.40
2023-01-18T05:39:24.386Z,92.41
2023-01-18T05:40:28.238Z,92.55
2023-01-18T05:41:32.021Z,92.57
2023-01-18T05:43:08.430Z,92.69
2023-01-18T05:44:12.140Z,92.68
2023-01-18T05:45:15.999Z,92.60
2023-01-18T05:46:51.997Z,92.52
2023-01-18T05:47:55.797Z,92.38
2023-01-18T05:48:59.568Z,92.26
2023-01-18T05:50:35.308Z,92.05
2023-01-18T05:51:39.023Z,92.25
2023-01-18T05:52:42.752Z,92.23
2023-01-18T05:54:19.243Z,92.09
2023-01-18T05:55:22.952Z,92.01
2023-01-18T05:56:26.516Z,92.02
2023-01-18T05:58:02.493Z,91.91
2023-01-18T05:59:06.308Z,91.65
2023-01-18T06:00:18.490Z,91.60
2023-01-18T06:01:22.334Z,91.51
2023-01-18T06:02:26.077Z,91.61
2023-01-18T06:04:03.187Z,91.37
2023-01-18T06:05:07.135Z,91.25
2023-01-18T06:06:10.782Z,91.25
2023-01-18T06:07:47.898Z,91.12
2023-01-18T06:08:51.548Z,91.05
2023-01-18T06:09:55.440Z,91.20
2023-01-18T06:11:31.450Z,91.15
2023-01-18T06:12:35.251Z,91.00
2023-01-18T06:13:39.460Z,91.02
2023-01-18T06:15:15.453Z,91.02
2023-01-18T06:16:19.317Z,91.05
2023-01-18T06:17:23.332Z,91.05
2023-01-18T06:18:59.239Z,90.95
2023-01-18T06:20:02.742Z,91.00
2023-01-18T06:21:07.501Z,91.10
2023-01-18T06:22:43.520Z,91.03
2023-01-18T06:23:47.849Z,91.20
2023-01-18T06:24:51.561Z,91.26
2023-01-18T06:26:27.430Z,91.16
2023-01-18T06:27:31.313Z,91.09
2023-01-18T06:28:36.755Z,91.16
2023-01-18T06:30:12.567Z,91.27
2023-01-18T06:31:16.478Z,91.25
2023-01-18T06:32:20.741Z,91.28
2023-01-18T06:33:56.800Z,91.22
2023-01-18T06:35:00.519Z,91.35
2023-01-18T06:36:04.177Z,91.39
2023-01-18T06:37:40.011Z,91.37
2023-01-18T06:38:43.704Z,91.35
2023-01-18T06:39:47.533Z,91.33
2023-01-18T06:41:26.257Z,91.33
2023-01-18T06:42:29.895Z,91.40
2023-01-18T06:43:33.538Z,91.53
2023-01-18T06:45:09.306Z,91.56
2023-01-18T06:46:13.197Z,91.47
2023-01-18T06:47:16.826Z,91.29
2023-01-18T06:48:52.544Z,91.23
2023-01-18T06:49:56.263Z,91.28
2023-01-18T06:50:59.908Z,91.30
2023-01-18T06:52:36.045Z,91.45
2023-01-18T06:53:43.540Z,91.52
2023-01-18T06:54:47.329Z,91.48
2023-01-18T06:56:23.217Z,91.63
2023-01-18T06:57:27.034Z,91.68
2023-01-18T06:58:30.795Z,91.80
2023-01-18T07:00:18.137Z,91.70
2023-01-18T07:01:22.297Z,91.58
2023-01-18T07:02:26.563Z,91.52
2023-01-18T07:04:02.424Z,91.58
2023-01-18T07:05:06.532Z,91.65
2023-01-18T07:06:10.270Z,91.68
2023-01-18T07:07:46.200Z,91.70
2023-01-18T07:08:49.865Z,91.75
2023-01-18T07:09:53.499Z,91.81
2023-01-18T07:11:29.931Z,92.00
2023-01-18T07:12:33.428Z,91.98
2023-01-18T07:13:37.709Z,91.93
2023-01-18T07:15:27.135Z,91.99
2023-01-18T07:16:30.825Z,92.02
2023-01-18T07:17:34.761Z,92.03
2023-01-18T07:19:10.469Z,92.04
2023-01-18T07:20:14.272Z,92.09
2023-01-18T07:21:20.924Z,92.05
2023-01-18T07:22:57.007Z,92.15
2023-01-18T07:24:00.923Z,92.18
2023-01-18T07:25:04.473Z,92.24
2023-01-18T07:26:40.404Z,92.13
2023-01-18T07:27:43.897Z,92.20
2023-01-18T07:28:47.439Z,92.31
2023-01-18T07:30:23.522Z,92.45
2023-01-18T07:31:27.115Z,92.56
2023-01-18T07:32:31.098Z,92.52
2023-01-18T07:34:06.951Z,92.67
2023-01-18T07:35:10.665Z,92.64
2023-01-18T07:36:14.566Z,92.64
2023-01-18T07:37:50.547Z,92.69
2023-01-18T07:38:54.562Z,92.75
2023-01-18T07:39:58.209Z,92.84
2023-01-18T07:41:36.798Z,92.82
2023-01-18T07:42:40.538Z,92.77
2023-01-18T07:43:44.999Z,92.94
2023-01-18T07:45:21.343Z,92.97
2023-01-18T07:46:25.160Z,93.02
2023-01-18T07:47:28.955Z,92.89
2023-01-18T07:49:05.162Z,92.97
2023-01-18T07:50:08.748Z,92.90
2023-01-18T07:51:12.500Z,92.96
2023-01-18T07:52:48.361Z,93.04
2023-01-18T07:53:52.803Z,93.06
2023-01-18T07:54:56.368Z,93.03
2023-01-18T07:56:32.433Z,93.07
2023-01-18T07:57:36.007Z,93.08
2023-01-18T07:58:39.712Z,92.98
2023-01-18T08:00:17.941Z,93.05
2023-01-18T08:01:21.973Z,93.13
2023-01-18T08:02:26.242Z,93.10
2023-01-18T08:04:02.346Z,93.08
2023-01-18T08:05:06.019Z,93.04
2023-01-18T08:06:09.772Z,92.96
2023-01-18T08:07:45.843Z,92.97
2023-01-18T08:08:52.068Z,93.14
2023-01-18T08:09:55.871Z,93.04
2023-01-18T08:11:31.655Z,93.08
2023-01-18T08:12:35.240Z,93.13
2023-01-18T08:13:39.228Z,93.06
2023-01-18T08:15:15.307Z,93.02
2023-01-18T08:16:19.070Z,93.03
2023-01-18T08:17:22.831Z,93.02
2023-01-18T08:18:58.765Z,93.05
2023-01-18T08:20:02.510Z,93.08
2023-01-18T08:21:06.159Z,93.05
2023-01-18T08:22:41.865Z,93.08
2023-01-18T08:23:46.144Z,92.93
2023-01-18T08:24:49.865Z,93.03
2023-01-18T08:26:26.005Z,93.08
2023-01-18T08:27:32.976Z,93.09
2023-01-18T08:28:36.657Z,93.22
2023-01-18T08:30:12.748Z,93.16
2023-01-18T08:31:16.656Z,93.39
2023-01-18T08:32:20.772Z,93.36
2023-01-18T08:33:57.023Z,93.24
2023-01-18T08:35:00.669Z,93.22
2023-01-18T08:36:04.420Z,93.28
2023-01-18T08:37:40.545Z,93.32
2023-01-18T08:38:44.107Z,93.27
2023-01-18T08:39:47.800Z,93.22
2023-01-18T08:41:23.864Z,93.37
2023-01-18T08:42:27.813Z,93.26
2023-01-18T08:43:31.595Z,93.23
2023-01-18T08:45:07.650Z,93.10
2023-01-18T08:46:11.476Z,93.12
2023-01-18T08:47:15.464Z,93.13
2023-01-18T08:48:51.392Z,93.18
2023-01-18T08:49:54.817Z,93.25
2023-01-18T08:50:58.603Z,93.17
2023-01-18T08:52:34.893Z,93.14
2023-01-18T08:53:39.193Z,93.18
2023-01-18T08:54:42.844Z,93.26
2023-01-18T08:56:18.977Z,93.24
2023-01-18T08:57:22.813Z,93.30
2023-01-18T08:58:26.707Z,93.34
2023-01-18T09:00:18.676Z,93.29
2023-01-18T09:01:25.714Z,93.30
2023-01-18T09:02:30.394Z,93.29
2023-01-18T09:04:06.915Z,93.36
2023-01-18T09:05:10.721Z,93.33
2023-01-18T09:06:17.531Z,93.32
2023-01-18T09:07:53.699Z,93.30
2023-01-18T09:08:57.325Z,93.34
2023-01-18T09:10:01.119Z,93.42
2023-01-18T09:11:37.532Z,93.38
2023-01-18T09:12:41.181Z,93.28
2023-01-18T09:14:05.031Z,93.27
2023-01-18T09:15:40.987Z,93.27
2023-01-18T09:16:44.960Z,93.27
2023-01-18T09:17:48.712Z,93.19
2023-01-18T09:19:24.439Z,92.98
2023-01-18T09:20:28.112Z,93.03
2023-01-18T09:21:31.767Z,93.03
2023-01-18T09:23:07.714Z,92.77
2023-01-18T09:24:11.443Z,92.75
2023-01-18T09:25:15.087Z,92.42
2023-01-18T09:26:51.234Z,92.52
2023-01-18T09:27:54.950Z,92.32
2023-01-18T09:28:58.674Z,92.26
2023-01-18T09:30:34.702Z,92.28
2023-01-18T09:31:38.614Z,92.08
2023-01-18T09:32:42.572Z,91.83
2023-01-18T09:34:58.104Z,91.84
2023-01-18T09:36:01.841Z,91.69
2023-01-18T09:37:05.505Z,91.72
2023-01-18T09:38:41.303Z,91.69
2023-01-18T09:39:57.453Z,91.71
2023-01-18T09:41:01.113Z,91.59
2023-01-18T09:42:39.557Z,91.40
2023-01-18T09:43:43.609Z,91.43
2023-01-18T09:44:47.178Z,91.40
2023-01-18T09:46:23.580Z,91.33
2023-01-18T09:47:27.589Z,91.30
2023-01-18T09:48:31.263Z,91.06
2023-01-18T09:50:07.298Z,91.03
2023-01-18T09:51:11.165Z,91.05
2023-01-18T09:52:14.917Z,91.02
2023-01-18T09:53:51.359Z,90.99
2023-01-18T09:54:55.138Z,90.95
2023-01-18T09:55:58.924Z,91.01
2023-01-18T09:57:34.838Z,90.90
2023-01-18T09:58:38.590Z,90.75
2023-01-18T09:59:42.437Z,90.63
2023-01-18T10:00:18.303Z,90.65
2023-01-18T10:01:23.017Z,90.67
2023-01-18T10:02:27.802Z,90.51
2023-01-18T10:04:04.368Z,90.36
2023-01-18T10:05:07.931Z,90.31
2023-01-18T10:06:11.630Z,90.28
2023-01-18T10:07:47.634Z,90.40
2023-01-18T10:08:51.173Z,90.36
2023-01-18T10:09:54.985Z,90.15
2023-01-18T10:11:30.932Z,90.14
2023-01-18T10:12:34.715Z,90.14
2023-01-18T10:13:39.541Z,90.01
2023-01-18T10:15:15.486Z,89.89
2023-01-18T10:16:19.272Z,89.89
2023-01-18T10:17:23.213Z,89.71
2023-01-18T10:18:59.156Z,89.67
2023-01-18T10:20:02.944Z,89.46
2023-01-18T10:21:06.646Z,89.49
2023-01-18T10:22:42.541Z,89.41
2023-01-18T10:23:47.155Z,89.43
2023-01-18T10:24:50.953Z,89.28
2023-01-18T10:26:27.249Z,89.04
2023-01-18T10:27:31.027Z,88.96
2023-01-18T10:28:35.100Z,88.85
2023-01-18T10:30:10.945Z,88.93
2023-01-18T10:31:14.841Z,88.80
2023-01-18T10:32:18.897Z,88.87
2023-01-18T10:33:55.078Z,88.68
2023-01-18T10:34:58.687Z,88.54
2023-01-18T10:36:02.530Z,88.67
2023-01-18T10:37:41.787Z,88.58
2023-01-18T10:38:46.162Z,88.44
2023-01-18T10:39:49.842Z,88.41
2023-01-18T10:41:25.641Z,88.32
2023-01-18T10:42:29.400Z,88.09
2023-01-18T10:43:33.266Z,88.20
2023-01-18T10:45:09.199Z,87.90
2023-01-18T10:46:13.271Z,87.78
2023-01-18T10:47:17.772Z,87.54
2023-01-18T10:48:53.619Z,87.40
2023-01-18T10:49:57.238Z,87.50
2023-01-18T10:51:00.890Z,87.61
2023-01-18T10:52:37.895Z,87.38
2023-01-18T10:53:42.287Z,87.19
2023-01-18T10:54:45.845Z,86.98
2023-01-18T10:56:21.781Z,87.04
2023-01-18T10:57:25.487Z,87.16
2023-01-18T10:58:29.230Z,87.10
2023-01-18T11:00:17.979Z,86.73
2023-01-18T11:01:22.223Z,86.71
2023-01-18T11:02:27.300Z,86.43
2023-01-18T11:04:03.548Z,85.54
2023-01-18T11:05:07.422Z,85.59
2023-01-18T11:06:11.188Z,85.72
2023-01-18T11:07:47.352Z,85.27
2023-01-18T11:08:51.652Z,85.27
2023-01-18T11:09:55.364Z,85.24
2023-01-18T11:11:31.732Z,85.17
2023-01-18T11:12:35.437Z,85.37
2023-01-18T11:13:39.683Z,85.21
2023-01-18T11:15:15.778Z,85.12
2023-01-18T11:16:19.758Z,85.41
2023-01-18T11:17:23.714Z,85.01
2023-01-18T11:18:59.864Z,84.75
2023-01-18T11:20:03.721Z,84.02
2023-01-18T11:21:07.412Z,83.92
2023-01-18T11:22:44.378Z,83.56
2023-01-18T11:23:49.769Z,83.64
2023-01-18T11:24:53.510Z,83.77
2023-01-18T11:26:29.639Z,83.98
2023-01-18T11:27:33.141Z,84.15
2023-01-18T11:28:36.741Z,83.80
2023-01-18T11:30:15.193Z,83.21
2023-01-18T11:31:19.901Z,83.04
2023-01-18T11:32:25.807Z,83.28
2023-01-18T11:34:01.697Z,83.50
2023-01-18T11:35:05.176Z,83.30
2023-01-18T11:36:09.003Z,83.70
2023-01-18T11:37:45.061Z,83.62
2023-01-18T11:38:49.750Z,83.63
2023-01-18T11:39:53.490Z,83.56
2023-01-18T11:41:29.546Z,83.25
2023-01-18T11:42:33.146Z,82.98
2023-01-18T11:43:36.806Z,83.07
2023-01-18T11:45:12.833Z,83.06
2023-01-18T11:46:17.039Z,82.85
2023-01-18T11:47:20.898Z,82.86
2023-01-18T11:48:57.080Z,82.76
2023-01-18T11:50:05.621Z,82.78
2023-01-18T11:51:20.473Z,83.06
2023-01-18T11:52:58.816Z,82.84
2023-01-18T11:54:02.432Z,83.25
2023-01-18T11:55:06.056Z,83.01
2023-01-18T11:56:42.049Z,82.34
2023-01-18T11:57:45.867Z,82.30
2023-01-18T11:58:50.244Z,82.96
2023-01-18T12:00:18.041Z,82.94
2023-01-18T12:01:22.124Z,82.81
2023-01-18T12:02:26.041Z,82.33
2023-01-18T12:04:02.344Z,82.44
2023-01-18T12:05:06.033Z,82.80
2023-01-18T12:06:09.739Z,83.11
2023-01-18T12:07:45.943Z,83.11
2023-01-18T12:08:50.175Z,81.88
2023-01-18T12:09:53.918Z,82.41
2023-01-18T12:11:30.110Z,82.22
2023-01-18T12:12:34.516Z,81.86
2023-01-18T12:13:38.172Z,81.56
2023-01-18T12:15:14.161Z,82.37
2023-01-18T12:16:18.070Z,82.25
2023-01-18T12:17:22.235Z,82.24
2023-01-18T12:19:06.557Z,82.26
2023-01-18T12:20:10.272Z,82.22
2023-01-18T12:21:14.040Z,81.65
2023-01-18T12:22:50.092Z,81.64
2023-01-18T12:23:53.875Z,81.36
2023-01-18T12:24:57.355Z,82.10
2023-01-18T12:26:51.997Z,81.34
2023-01-18T12:27:55.665Z,81.43
2023-01-18T12:29:00.190Z,80.85
2023-01-18T12:30:36.348Z,81.49
2023-01-18T12:31:40.469Z,80.67
2023-01-18T12:32:44.108Z,80.92
2023-01-18T12:34:35.634Z,79.94
2023-01-18T12:35:39.199Z,80.85
2023-01-18T12:36:42.861Z,80.45
2023-01-18T12:38:19.543Z,79.80
2023-01-18T12:39:23.483Z,79.79
2023-01-18T12:40:27.030Z,78.73
2023-01-18T12:42:02.857Z,79.05
2023-01-18T12:43:06.576Z,79.48
2023-01-18T12:44:10.475Z,79.42
2023-01-18T12:45:46.405Z,79.51
2023-01-18T12:46:50.346Z,78.82
2023-01-18T12:47:53.995Z,79.27
2023-01-18T12:49:30.557Z,79.80
2023-01-18T12:50:34.135Z,78.75
2023-01-18T12:51:37.929Z,79.23
2023-01-18T12:53:32.210Z,79.15
2023-01-18T12:54:36.117Z,79.31
2023-01-18T12:55:40.043Z,80.00
2023-01-18T12:57:17.172Z,79.61
2023-01-18T12:58:21.055Z,79.83
2023-01-18T12:59:24.562Z,79.58
2023-01-18T13:00:18.567Z,79.55
2023-01-18T13:01:22.885Z,79.72
2023-01-18T13:02:27.403Z,79.43
2023-01-18T13:04:05.899Z,79.56
2023-01-18T13:05:09.373Z,79.21
2023-01-18T13:06:12.977Z,79.60
2023-01-18T13:07:48.996Z,79.72
2023-01-18T13:08:53.187Z,80.32
2023-01-18T13:09:56.874Z,79.97
2023-01-18T13:11:32.873Z,80.09
2023-01-18T13:12:36.621Z,80.15
2023-01-18T13:13:40.524Z,80.83
2023-01-18T13:15:19.485Z,80.31
2023-01-18T13:16:23.386Z,80.45
2023-01-18T13:17:27.099Z,80.63
2023-01-18T13:19:02.757Z,80.32
2023-01-18T13:20:06.570Z,80.26
2023-01-18T13:21:10.271Z,80.31
2023-01-18T13:22:46.196Z,80.74
2023-01-18T13:23:49.761Z,81.25
2023-01-18T13:24:53.556Z,81.32
2023-01-18T13:26:29.558Z,80.85
2023-01-18T13:27:33.109Z,80.67
2023-01-18T13:28:37.202Z,81.20
2023-01-18T13:30:13.484Z,80.97
2023-01-18T13:31:17.547Z,80.30
2023-01-18T13:32:21.357Z,80.32
2023-01-18T13:33:57.212Z,81.62
2023-01-18T13:35:25.942Z,81.40
2023-01-18T13:36:30.311Z,80.95
2023-01-18T13:38:41.400Z,81.12
2023-01-18T13:39:48.593Z,81.26
2023-01-18T13:40:52.433Z,81.56
2023-01-18T13:42:28.337Z,81.18
2023-01-18T13:43:32.093Z,80.90
2023-01-18T13:44:35.873Z,80.78
2023-01-18T13:46:12.044Z,81.71
2023-01-18T13:47:15.954Z,81.26
2023-01-18T13:48:19.864Z,81.94
2023-01-18T13:50:16.749Z,82.21
2023-01-18T13:51:20.662Z,82.16
2023-01-18T13:52:24.304Z,81.65
2023-01-18T13:54:00.536Z,82.08
2023-01-18T13:55:04.243Z,82.11
2023-01-18T13:56:07.820Z,82.05
2023-01-18T13:57:43.692Z,81.90
2023-01-18T13:58:47.964Z,81.86
2023-01-18T13:59:51.639Z,81.61
2023-01-18T14:00:19.974Z,81.80
2023-01-18T14:01:23.882Z,81.99
2023-01-18T14:02:28.125Z,81.95
2023-01-18T14:04:04.491Z,81.89
2023-01-18T14:05:08.307Z,82.01
2023-01-18T14:06:12.643Z,81.86
2023-01-18T14:07:48.823Z,82.00
2023-01-18T14:08:52.316Z,81.49
2023-01-18T14:09:55.860Z,80.75
2023-01-18T14:11:31.844Z,81.61
2023-01-18T14:12:35.658Z,81.84
2023-01-18T14:13:39.925Z,81.99
2023-01-18T14:15:15.655Z,82.06
2023-01-18T14:16:19.694Z,82.28
2023-01-18T14:17:25.301Z,82.31
2023-01-18T14:19:21.999Z,82.74
2023-01-18T14:20:25.714Z,82.65
2023-01-18T14:21:29.684Z,82.63
2023-01-18T14:23:06.604Z,82.85
2023-01-18T14:24:11.775Z,82.53
2023-01-18T14:25:15.464Z,82.41
2023-01-18T14:26:51.425Z,82.56
2023-01-18T14:27:55.034Z,82.53
2023-01-18T14:28:58.628Z,82.59
2023-01-18T14:30:34.643Z,82.75
2023-01-18T14:31:38.460Z,82.78
2023-01-18T14:32:42.298Z,82.67
2023-01-18T14:34:18.777Z,82.76
2023-01-18T14:35:25.442Z,82.68
2023-01-18T14:36:29.728Z,82.59
2023-01-18T14:38:23.056Z,82.89
2023-01-18T14:39:26.648Z,82.90
2023-01-18T14:40:30.411Z,82.75
2023-01-18T14:42:06.250Z,82.99
2023-01-18T14:43:09.912Z,83.09
2023-01-18T14:44:13.755Z,83.44
2023-01-18T14:46:09.848Z,83.45
2023-01-18T14:47:29.843Z,83.33
2023-01-18T14:48:33.425Z,83.33
2023-01-18T14:50:09.378Z,83.21
2023-01-18T14:51:13.030Z,83.39
2023-01-18T14:52:17.113Z,83.39
2023-01-18T14:53:53.646Z,83.24
2023-01-18T14:54:57.404Z,82.89
2023-01-18T14:56:01.014Z,82.26
2023-01-18T14:57:36.914Z,82.87
2023-01-18T14:58:40.595Z,82.84
2023-01-18T14:59:44.292Z,82.58
2023-01-18T15:00:17.920Z,82.24
2023-01-18T15:01:22.162Z,82.72
2023-01-18T15:02:27.163Z,82.75
2023-01-18T15:04:04.905Z,82.20
2023-01-18T15:05:08.757Z,82.21
2023-01-18T15:06:12.421Z,82.37
2023-01-18T15:07:48.313Z,82.49
2023-01-18T15:08:52.866Z,82.06
2023-01-18T15:09:56.516Z,82.25
2023-01-18T15:11:32.432Z,81.98
2023-01-18T15:12:36.124Z,82.31
2023-01-18T15:13:40.484Z,82.75
2023-01-18T15:15:16.634Z,82.68
2023-01-18T15:16:20.641Z,82.65
2023-01-18T15:17:24.684Z,82.57
2023-01-18T15:19:00.522Z,82.57
2023-01-18T15:20:04.356Z,82.57
2023-01-18T15:21:08.077Z,82.69
2023-01-18T15:22:43.797Z,82.57
2023-01-18T15:23:47.948Z,82.87
2023-01-18T15:24:51.701Z,83.16
2023-01-18T15:26:27.780Z,82.95
2023-01-18T15:27:31.540Z,82.78
2023-01-18T15:28:35.281Z,82.78
2023-01-18T15:30:13.044Z,82.95
2023-01-18T15:31:16.958Z,83.34
2023-01-18T15:32:20.943Z,83.39
2023-01-18T15:33:57.119Z,83.39
2023-01-18T15:35:00.788Z,83.27
2023-01-18T15:36:04.608Z,83.04
2023-01-18T15:37:40.528Z,83.27
2023-01-18T15:38:44.938Z,83.14
2023-01-18T15:39:48.927Z,83.21
2023-01-18T15:41:24.636Z,83.29
2023-01-18T15:42:28.552Z,83.37
2023-01-18T15:43:32.132Z,83.56
2023-01-18T15:45:08.129Z,83.74
2023-01-18T15:46:12.214Z,83.54
2023-01-18T15:47:16.249Z,83.52
2023-01-18T15:48:53.444Z,83.46
2023-01-18T15:49:57.208Z,83.46
2023-01-18T15:51:01.080Z,83.38
2023-01-18T15:52:37.424Z,83.27
2023-01-18T15:53:43.333Z,83.37
2023-01-18T15:54:47.120Z,83.52
2023-01-18T15:56:23.055Z,83.50
2023-01-18T15:57:26.712Z,83.54
2023-01-18T15:58:33.449Z,83.49